createdAt,value
2018-07-26T00:01:06.572Z,69.10
2018-07-26T00:03:35.809Z,68.50
2018-07-26T00:06:04.408Z,68.80
2018-07-26T00:08:32.884Z,68.30
2018-07-26T00:11:01.389Z,68.30
2018-07-26T00:13:30.084Z,68.50
2018-07-26T00:15:58.540Z,69.20
2018-07-26T00:18:27.047Z,69.20
2018-07-26T00:20:55.480Z,70.20
2018-07-26T00:23:24.021Z,71.10
2018-07-26T00:25:53.422Z,71.60
2018-07-26T00:28:21.941Z,72.40
2018-07-26T00:30:50.393Z,73.20
2018-07-26T00:33:18.836Z,72.10
2018-07-26T00:35:47.313Z,71.30
2018-07-26T00:38:15.815Z,71.30
2018-07-26T00:40:44.236Z,70.90
2018-07-26T00:43:12.800Z,70.80
2018-07-26T00:45:41.255Z,70.60
2018-07-26T00:48:09.772Z,70.80
2018-07-26T00:50:38.220Z,71.00
2018-07-26T00:53:07.235Z,72.40
2018-07-26T00:55:35.702Z,71.30
2018-07-26T00:58:04.173Z,71.00
2018-07-26T01:00:32.803Z,71.30
2018-07-26T01:03:01.325Z,71.60
2018-07-26T01:05:29.864Z,71.90
2018-07-26T01:07:58.313Z,72.60
2018-07-26T01:10:26.767Z,71.80
2018-07-26T01:12:55.213Z,72.30
2018-07-26T01:15:23.740Z,73.40
2018-07-26T01:17:52.228Z,74.50
2018-07-26T01:20:20.684Z,74.50
2018-07-26T01:22:49.157Z,74.60
2018-07-26T01:25:17.602Z,74.30
2018-07-26T01:27:46.034Z,74.00
2018-07-26T01:30:14.667Z,74.10
2018-07-26T01:32:43.127Z,73.60
2018-07-26T01:35:11.569Z,73.30
2018-07-26T01:37:40.129Z,73.20
2018-07-26T01:40:08.557Z,73.40
2018-07-26T01:43:48.273Z,74.40
2018-07-26T01:46:17.633Z,75.20
2018-07-26T01:48:47.241Z,75.30
2018-07-26T01:51:15.760Z,75.70
2018-07-26T01:53:45.592Z,76.40
2018-07-26T01:56:14.144Z,76.40
2018-07-26T01:58:42.671Z,76.90
2018-07-26T02:01:12.313Z,76.00
2018-07-26T02:03:41.501Z,75.20
2018-07-26T02:06:10.193Z,75.40
2018-07-26T02:08:38.796Z,76.50
2018-07-26T02:11:07.204Z,76.60
2018-07-26T02:13:35.644Z,76.60
2018-07-26T02:16:04.157Z,76.40
2018-07-26T02:18:32.622Z,76.40
2018-07-26T02:21:01.045Z,75.80
2018-07-26T02:23:29.510Z,76.10
2018-07-26T02:25:58.016Z,75.60
2018-07-26T02:28:26.511Z,75.80
2018-07-26T02:30:54.964Z,76.20
2018-07-26T02:33:23.481Z,77.60
2018-07-26T02:35:51.906Z,77.50
2018-07-26T02:38:20.394Z,77.20
2018-07-26T02:40:48.788Z,77.30
2018-07-26T02:43:17.320Z,77.30
2018-07-26T02:45:45.817Z,77.50
2018-07-26T02:48:14.413Z,77.90
2018-07-26T02:50:42.889Z,78.00
2018-07-26T02:53:11.425Z,78.00
2018-07-26T02:55:39.910Z,77.80
2018-07-26T02:58:08.435Z,77.50
2018-07-26T03:00:36.905Z,77.10
2018-07-26T03:03:05.367Z,77.50
2018-07-26T03:05:33.796Z,77.40
2018-07-26T03:08:02.278Z,78.00
2018-07-26T03:12:58.895Z,77.10
2018-07-26T03:15:27.364Z,77.00
2018-07-26T03:17:55.769Z,77.60
2018-07-26T03:20:24.210Z,78.10
2018-07-26T03:22:52.660Z,78.10
2018-07-26T03:25:21.112Z,78.40
2018-07-26T03:27:49.577Z,78.20
2018-07-26T03:30:18.013Z,78.00
2018-07-26T03:32:46.516Z,77.70
2018-07-26T03:35:15.176Z,77.70
2018-07-26T03:37:43.612Z,78.20
2018-07-26T03:40:12.085Z,78.00
2018-07-26T03:42:40.605Z,78.10
2018-07-26T03:45:09.040Z,78.70
2018-07-26T03:47:37.553Z,79.00
2018-07-26T03:50:06.074Z,79.00
2018-07-26T03:55:02.722Z,79.60
2018-07-26T03:57:31.292Z,79.90
2018-07-26T03:59:59.779Z,79.80
2018-07-26T04:02:28.280Z,79.30
2018-07-26T04:07:24.883Z,79.10
2018-07-26T04:09:53.410Z,79.20
2018-07-26T04:14:50.106Z,79.40
2018-07-26T04:17:18.533Z,79.50
2018-07-26T04:19:47.004Z,80.00
2018-07-26T04:22:15.441Z,80.30
2018-07-26T04:24:44.092Z,80.20
2018-07-26T04:27:12.533Z,80.10
2018-07-26T04:29:40.976Z,80.20
2018-07-26T04:32:10.289Z,80.40
2018-07-26T04:34:38.712Z,80.50
2018-07-26T04:37:07.271Z,80.70
2018-07-26T04:39:35.704Z,80.70
2018-07-26T04:42:05.088Z,81.20
2018-07-26T04:44:33.572Z,81.10
2018-07-26T04:47:02.011Z,81.00
2018-07-26T04:49:30.437Z,81.00
2018-07-26T04:51:59.010Z,80.70
2018-07-26T04:54:27.540Z,80.40
2018-07-26T04:56:56.033Z,80.30
2018-07-26T04:59:24.500Z,80.00
2018-07-26T05:01:52.972Z,79.70
2018-07-26T05:04:21.535Z,80.10
2018-07-26T05:06:50.690Z,80.70
2018-07-26T05:09:19.120Z,80.70
2018-07-26T05:11:47.648Z,80.60
2018-07-26T05:14:16.208Z,80.40
2018-07-26T05:16:44.697Z,80.20
2018-07-26T05:19:13.176Z,79.00
2018-07-26T05:21:41.585Z,78.30
2018-07-26T05:24:10.821Z,78.00
2018-07-26T05:26:39.999Z,77.50
2018-07-26T05:29:08.496Z,77.30
2018-07-26T05:31:36.893Z,76.10
2018-07-26T05:34:05.456Z,75.60
2018-07-26T05:36:33.956Z,74.70
2018-07-26T05:39:02.514Z,73.50
2018-07-26T05:41:31.034Z,72.70
2018-07-26T05:46:27.651Z,71.20
2018-07-26T05:48:56.222Z,71.70
2018-07-26T05:51:25.276Z,70.50
2018-07-26T05:53:53.752Z,70.30
2018-07-26T05:56:22.183Z,68.30
2018-07-26T05:58:50.694Z,66.30
2018-07-26T06:01:19.113Z,66.40
2018-07-26T06:03:48.352Z,65.90
2018-07-26T06:06:16.981Z,64.20
2018-07-26T06:11:13.694Z,64.00
2018-07-26T06:13:42.216Z,63.10
2018-07-26T06:16:11.538Z,62.30
2018-07-26T06:18:40.081Z,61.30
2018-07-26T06:21:08.757Z,61.00
2018-07-26T06:23:37.336Z,60.30
2018-07-26T06:26:05.886Z,60.10
2018-07-26T06:31:02.521Z,54.00
2018-07-26T06:33:31.154Z,52.50
2018-07-26T06:35:59.556Z,51.70
2018-07-26T06:38:28.030Z,52.30
2018-07-26T06:40:56.488Z,51.00
2018-07-26T06:43:25.053Z,51.80
2018-07-26T06:45:53.529Z,49.80
2018-07-26T06:48:21.983Z,51.00
2018-07-26T06:50:50.873Z,50.80
2018-07-26T06:53:19.349Z,49.40
2018-07-26T06:55:47.821Z,49.80
2018-07-26T06:58:16.292Z,51.50
2018-07-26T07:00:44.807Z,50.00
2018-07-26T07:03:13.312Z,48.80
2018-07-26T07:05:41.808Z,50.20
2018-07-26T07:08:10.362Z,49.20
2018-07-26T07:10:38.898Z,49.10
2018-07-26T07:13:07.393Z,49.60
2018-07-26T07:15:36.325Z,49.50
2018-07-26T07:18:04.980Z,49.60
2018-07-26T07:20:33.516Z,49.50
2018-07-26T07:23:01.977Z,50.70
2018-07-26T07:25:30.452Z,50.60
2018-07-26T07:27:59.057Z,50.00
2018-07-26T07:30:27.600Z,51.10
2018-07-26T07:32:56.201Z,50.40
2018-07-26T07:35:24.709Z,49.90
2018-07-26T07:40:21.436Z,48.50
2018-07-26T07:42:49.938Z,48.80
2018-07-26T07:47:47.488Z,48.70
2018-07-26T07:50:15.981Z,48.20
2018-07-26T07:55:12.710Z,47.20
2018-07-26T07:57:41.354Z,46.20
2018-07-26T08:00:11.132Z,46.80
2018-07-26T08:02:39.614Z,46.40
2018-07-26T08:05:08.244Z,46.10
2018-07-26T08:07:36.925Z,45.60
2018-07-26T08:10:07.414Z,48.30
2018-07-26T08:12:35.978Z,46.60
2018-07-26T08:15:05.585Z,46.20
2018-07-26T08:17:34.132Z,46.00
2018-07-26T08:20:02.914Z,45.40
2018-07-26T08:22:31.581Z,45.50
2018-07-26T08:25:00.117Z,45.10
2018-07-26T08:27:28.601Z,45.50
2018-07-26T08:29:57.079Z,46.60
2018-07-26T08:32:25.605Z,45.70
2018-07-26T08:34:54.104Z,44.40
2018-07-26T08:37:23.367Z,43.70
2018-07-26T08:39:51.845Z,44.40
2018-07-26T08:42:20.414Z,44.50
2018-07-26T08:44:48.945Z,43.60
2018-07-26T08:47:17.555Z,43.90
2018-07-26T08:49:46.053Z,43.70
2018-07-26T08:52:14.735Z,43.10
2018-07-26T08:54:43.138Z,44.00
2018-07-26T08:57:11.732Z,43.20
2018-07-26T08:59:40.276Z,44.50
2018-07-26T09:02:08.877Z,43.00
2018-07-26T09:04:37.472Z,42.60
2018-07-26T09:07:06.603Z,43.50
2018-07-26T09:09:35.069Z,43.10
2018-07-26T09:12:03.504Z,43.40
2018-07-26T09:14:32.024Z,43.30
2018-07-26T09:17:00.589Z,42.70
2018-07-26T09:19:29.176Z,43.40
2018-07-26T09:21:57.639Z,42.80
2018-07-26T09:24:26.205Z,42.90
2018-07-26T09:26:54.585Z,42.00
2018-07-26T09:29:23.098Z,42.50
2018-07-26T09:31:51.544Z,42.80
2018-07-26T09:36:48.154Z,42.40
2018-07-26T09:39:16.641Z,42.50
2018-07-26T09:41:45.170Z,43.70
2018-07-26T09:44:13.689Z,43.20
2018-07-26T09:46:42.179Z,42.10
2018-07-26T09:49:10.728Z,42.60
2018-07-26T09:51:39.232Z,42.50
2018-07-26T09:54:08.385Z,43.20
2018-07-26T09:56:36.920Z,42.80
2018-07-26T09:59:05.565Z,42.00
2018-07-26T10:01:35.464Z,43.00
2018-07-26T10:04:04.210Z,42.70
2018-07-26T10:06:32.715Z,43.60
2018-07-26T10:09:01.365Z,42.30
2018-07-26T10:11:30.474Z,43.50
2018-07-26T10:13:59.183Z,45.20
2018-07-26T10:16:27.641Z,43.30
2018-07-26T10:18:56.125Z,43.40
2018-07-26T10:21:24.588Z,43.10
2018-07-26T10:23:53.064Z,45.30
2018-07-26T10:26:21.545Z,43.90
2018-07-26T10:28:50.081Z,43.40
2018-07-26T10:31:18.909Z,42.80
2018-07-26T10:33:47.585Z,42.20
2018-07-26T10:38:44.300Z,43.80
2018-07-26T10:41:12.931Z,44.00
2018-07-26T10:43:41.465Z,43.40
2018-07-26T10:46:09.968Z,42.50
2018-07-26T10:51:06.611Z,43.20
2018-07-26T10:53:35.103Z,43.20
2018-07-26T10:56:03.985Z,42.20
2018-07-26T10:58:32.488Z,41.40
2018-07-26T11:01:01.841Z,43.00
2018-07-26T11:03:30.509Z,43.50
2018-07-26T11:05:59.211Z,42.50
2018-07-26T11:08:28.274Z,41.50
2018-07-26T11:10:56.861Z,42.10
2018-07-26T11:13:25.312Z,43.00
2018-07-26T11:15:53.874Z,43.40
2018-07-26T11:18:22.367Z,44.00
2018-07-26T11:20:50.935Z,43.30
2018-07-26T11:23:19.416Z,41.50
2018-07-26T11:25:48.018Z,40.60
2018-07-26T11:28:16.474Z,40.50
2018-07-26T11:30:45.381Z,41.40
2018-07-26T11:33:13.864Z,40.90
2018-07-26T11:35:42.372Z,42.30
2018-07-26T11:38:10.920Z,42.90
2018-07-26T11:40:39.460Z,42.50
2018-07-26T11:45:36.117Z,40.80
2018-07-26T11:48:04.697Z,42.00
2018-07-26T11:53:01.316Z,41.00
2018-07-26T11:55:29.761Z,42.30
2018-07-26T11:57:58.282Z,42.70
2018-07-26T12:00:26.807Z,42.70
2018-07-26T12:02:55.360Z,43.40
2018-07-26T12:05:23.768Z,42.30
2018-07-26T12:07:52.204Z,43.20
2018-07-26T12:10:20.728Z,41.60
2018-07-26T12:12:49.204Z,41.80
2018-07-26T12:15:17.695Z,41.10
2018-07-26T12:17:46.259Z,40.60
2018-07-26T12:20:14.732Z,41.50
2018-07-26T12:22:43.289Z,42.50
2018-07-26T12:25:11.920Z,42.30
2018-07-26T12:27:40.433Z,43.40
2018-07-26T12:30:09.010Z,43.70
2018-07-26T12:32:38.040Z,43.40
2018-07-26T12:35:06.651Z,43.40
2018-07-26T12:37:35.118Z,43.00
2018-07-26T12:40:03.844Z,43.30
2018-07-26T12:42:32.380Z,43.40
2018-07-26T12:45:01.290Z,43.20
2018-07-26T12:47:29.811Z,43.20
2018-07-26T12:52:26.673Z,43.10
2018-07-26T12:54:55.255Z,42.20
2018-07-26T12:57:23.774Z,42.10
2018-07-26T12:59:53.017Z,42.40
2018-07-26T13:02:21.473Z,41.20
2018-07-26T13:04:49.955Z,42.40
2018-07-26T13:07:18.492Z,41.40
2018-07-26T13:09:47.021Z,41.80
2018-07-26T13:12:15.794Z,41.80
2018-07-26T13:14:44.228Z,41.40
2018-07-26T13:17:13.712Z,42.00
2018-07-26T13:19:43.188Z,41.90
2018-07-26T13:22:11.796Z,42.20
2018-07-26T13:24:40.297Z,42.70
2018-07-26T13:29:37.403Z,40.90
2018-07-26T13:32:06.765Z,40.50
2018-07-26T13:37:03.480Z,40.70
2018-07-26T13:39:32.012Z,40.50
2018-07-26T13:42:00.496Z,40.90
2018-07-26T13:44:28.955Z,40.80
2018-07-26T13:46:57.433Z,41.10
2018-07-26T13:49:26.044Z,41.20
2018-07-26T13:54:22.622Z,40.50
2018-07-26T13:56:51.060Z,40.50
2018-07-26T13:59:19.551Z,41.20
2018-07-26T14:06:44.356Z,41.00
2018-07-26T14:09:13.157Z,41.50
2018-07-26T14:11:42.193Z,40.60
2018-07-26T14:14:10.687Z,40.80
2018-07-26T14:16:39.209Z,40.00
2018-07-26T14:19:08.481Z,40.20
2018-07-26T14:21:37.112Z,40.00
2018-07-26T14:24:11.237Z,40.60
2018-07-26T14:26:39.712Z,40.90
2018-07-26T14:31:37.513Z,40.30
2018-07-26T14:34:05.959Z,40.70
2018-07-26T14:36:34.447Z,40.00
2018-07-26T14:39:03.495Z,39.90
2018-07-26T14:41:33.050Z,39.80
2018-07-26T14:44:01.677Z,39.80
2018-07-26T14:46:30.164Z,40.20
2018-07-26T14:48:58.750Z,39.90
2018-07-26T14:51:27.295Z,40.00
2018-07-26T14:58:52.482Z,39.00
2018-07-26T15:03:49.353Z,39.70
2018-07-26T15:06:18.670Z,39.40
2018-07-26T15:08:47.171Z,39.40
2018-07-26T15:11:15.980Z,40.10
2018-07-26T15:16:12.780Z,38.50
2018-07-26T15:18:42.249Z,38.70
2018-07-26T15:21:10.905Z,38.70
2018-07-26T15:23:40.193Z,38.40
2018-07-26T15:26:08.693Z,38.60
2018-07-26T15:28:37.107Z,38.70
2018-07-26T15:31:05.685Z,38.60
2018-07-26T15:33:34.160Z,39.10
2018-07-26T15:36:02.712Z,39.20
2018-07-26T15:38:31.220Z,39.00
2018-07-26T15:43:27.949Z,38.90
2018-07-26T15:45:56.520Z,38.90
2018-07-26T15:48:25.113Z,38.60
2018-07-26T15:50:53.685Z,37.90
2018-07-26T15:53:22.495Z,38.50
2018-07-26T15:55:50.941Z,38.00
2018-07-26T15:58:19.532Z,37.70
2018-07-26T16:00:48.085Z,37.70
2018-07-26T16:03:16.678Z,37.90
2018-07-26T16:05:45.164Z,37.90
2018-07-26T16:08:13.722Z,38.10
2018-07-26T16:10:42.171Z,37.50
2018-07-26T16:13:10.709Z,37.80
2018-07-26T16:15:39.185Z,38.00
2018-07-26T16:18:07.776Z,37.50
2018-07-26T16:33:40.604Z,37.40
2018-07-26T16:38:37.233Z,37.10
2018-07-26T16:41:05.851Z,37.40
2018-07-26T16:43:34.317Z,37.00
2018-07-26T16:46:02.845Z,37.00
2018-07-26T16:48:31.355Z,36.90
2018-07-26T16:50:59.822Z,36.50
2018-07-26T16:53:28.335Z,36.70
2018-07-26T16:55:56.837Z,36.50
2018-07-26T17:00:53.554Z,36.80
2018-07-26T17:03:22.010Z,36.70
2018-07-26T17:05:50.547Z,36.70
2018-07-26T17:08:19.071Z,36.70
2018-07-26T17:10:47.801Z,37.00
2018-07-26T17:13:16.370Z,37.30
2018-07-26T17:15:44.940Z,36.80
2018-07-26T17:18:13.415Z,36.90
2018-07-26T17:20:41.889Z,36.60
2018-07-26T17:25:38.762Z,36.70
2018-07-26T17:28:07.592Z,36.70
2018-07-26T17:30:36.204Z,36.50
2018-07-26T17:33:04.749Z,36.80
2018-07-26T17:35:33.354Z,36.80
2018-07-26T17:38:01.920Z,37.00
2018-07-26T17:40:30.394Z,36.90
2018-07-26T17:42:58.879Z,36.50
2018-07-26T17:45:27.367Z,36.40
2018-07-26T17:47:55.836Z,36.80
2018-07-26T17:50:24.317Z,36.60
2018-07-26T17:52:52.896Z,36.80
2018-07-26T17:55:21.421Z,37.00
2018-07-26T17:57:49.920Z,37.40
2018-07-26T18:00:18.446Z,36.90
2018-07-26T18:02:46.948Z,37.00
2018-07-26T18:05:15.664Z,37.20
2018-07-26T18:07:44.174Z,37.10
2018-07-26T18:10:12.640Z,37.30
2018-07-26T18:12:41.097Z,37.10
2018-07-26T18:15:09.837Z,37.40
2018-07-26T18:17:39.389Z,37.30
2018-07-26T18:20:08.290Z,37.50
2018-07-26T18:22:36.914Z,38.10
2018-07-26T18:25:05.644Z,38.70
2018-07-26T18:27:34.147Z,39.60
2018-07-26T18:30:02.632Z,40.60
2018-07-26T18:32:31.600Z,41.50
2018-07-26T18:35:00.297Z,41.30
2018-07-26T18:37:28.864Z,41.20
2018-07-26T18:39:57.358Z,41.40
2018-07-26T18:42:26.056Z,41.40
2018-07-26T18:44:54.605Z,41.60
2018-07-26T18:47:23.214Z,41.50
2018-07-26T18:49:51.692Z,41.60
2018-07-26T18:52:20.185Z,41.80
2018-07-26T18:54:48.708Z,40.70
2018-07-26T18:57:17.229Z,41.00
2018-07-26T18:59:45.824Z,41.30
2018-07-26T19:02:14.410Z,41.80
2018-07-26T19:04:42.792Z,41.50
2018-07-26T19:07:11.383Z,41.70
2018-07-26T19:09:39.926Z,42.10
2018-07-26T19:12:08.424Z,41.80
2018-07-26T19:14:36.893Z,41.50
2018-07-26T19:17:05.928Z,40.90
2018-07-26T19:19:34.423Z,40.90
2018-07-26T19:22:03.037Z,41.10
2018-07-26T19:24:31.543Z,41.30
2018-07-26T19:26:59.990Z,41.50
2018-07-26T19:29:28.575Z,41.80
2018-07-26T19:34:25.346Z,42.20
2018-07-26T19:36:53.868Z,41.90
2018-07-26T19:39:22.357Z,42.10
2018-07-26T19:41:50.865Z,42.40
2018-07-26T19:44:19.449Z,42.10
2018-07-26T19:46:48.112Z,42.50
2018-07-26T19:49:16.728Z,42.30
2018-07-26T19:51:45.416Z,42.70
2018-07-26T19:54:13.881Z,42.80
2018-07-26T19:56:42.451Z,42.80
2018-07-26T19:59:11.580Z,43.10
2018-07-26T20:01:40.213Z,43.40
2018-07-26T20:04:08.810Z,43.30
2018-07-26T20:06:37.437Z,43.50
2018-07-26T20:09:08.634Z,43.60
2018-07-26T20:11:37.450Z,43.90
2018-07-26T20:14:06.982Z,44.00
2018-07-26T20:16:35.563Z,44.20
2018-07-26T20:19:04.085Z,44.70
2018-07-26T20:21:32.541Z,43.70
2018-07-26T20:24:01.137Z,43.70
2018-07-26T20:26:29.641Z,44.30
2018-07-26T20:28:58.737Z,44.80
2018-07-26T20:31:27.168Z,44.50
2018-07-26T20:36:23.867Z,45.20
2018-07-26T20:38:52.528Z,46.10
2018-07-26T20:41:20.972Z,46.10
2018-07-26T20:43:49.662Z,46.30
2018-07-26T20:46:18.093Z,46.80
2018-07-26T20:48:46.572Z,48.10
2018-07-26T20:51:15.053Z,47.90
2018-07-26T20:53:43.530Z,48.40
2018-07-26T20:56:12.029Z,48.60
2018-07-26T20:58:40.501Z,48.10
2018-07-26T21:01:09.441Z,48.70
2018-07-26T21:03:37.856Z,47.90
2018-07-26T21:06:06.362Z,48.40
2018-07-26T21:08:35.471Z,48.30
2018-07-26T21:11:04.773Z,48.40
2018-07-26T21:13:33.206Z,47.60
2018-07-26T21:16:01.712Z,48.00
2018-07-26T21:18:30.353Z,48.10
2018-07-26T21:20:58.756Z,48.50
2018-07-26T21:23:27.255Z,49.30
2018-07-26T21:25:56.629Z,48.50
2018-07-26T21:28:25.104Z,48.60
2018-07-26T21:30:53.637Z,48.70
2018-07-26T21:33:22.112Z,49.70
2018-07-26T21:35:50.579Z,51.40
2018-07-26T21:38:19.227Z,51.30
2018-07-26T21:40:47.692Z,51.00
2018-07-26T21:43:16.700Z,52.00
2018-07-26T21:45:45.153Z,52.10
2018-07-26T21:48:13.646Z,52.80
2018-07-26T21:50:42.093Z,54.60
2018-07-26T21:53:10.570Z,55.00
2018-07-26T21:55:39.068Z,54.80
2018-07-26T21:58:07.528Z,54.30
2018-07-26T22:00:41.778Z,54.30
2018-07-26T22:03:10.367Z,54.60
2018-07-26T22:05:38.919Z,54.90
2018-07-26T22:08:07.417Z,53.20
2018-07-26T22:10:35.923Z,56.90
2018-07-26T22:13:04.514Z,55.50
2018-07-26T22:15:33.031Z,55.80
2018-07-26T22:18:01.484Z,57.60
2018-07-26T22:20:29.917Z,57.80
2018-07-26T22:22:58.395Z,60.00
2018-07-26T22:25:26.888Z,57.60
2018-07-26T22:27:55.355Z,59.40
2018-07-26T22:30:23.845Z,60.00
2018-07-26T22:32:52.315Z,59.00
2018-07-26T22:35:20.764Z,60.00
2018-07-26T22:37:49.193Z,59.60
2018-07-26T22:40:17.705Z,59.40
2018-07-26T22:42:46.177Z,60.00
2018-07-26T22:45:14.772Z,60.10
2018-07-26T22:47:43.210Z,60.80
2018-07-26T22:50:11.721Z,61.10
2018-07-26T22:52:40.304Z,61.00
2018-07-26T22:55:09.396Z,61.20
2018-07-26T22:57:37.884Z,61.60
2018-07-26T23:00:06.711Z,61.90
2018-07-26T23:02:35.717Z,61.70
2018-07-26T23:05:04.636Z,61.20
2018-07-26T23:07:33.087Z,61.30
2018-07-26T23:10:01.513Z,61.40
2018-07-26T23:12:30.001Z,61.80
2018-07-26T23:14:58.933Z,62.20
2018-07-26T23:17:27.413Z,61.80
2018-07-26T23:19:55.941Z,61.80
2018-07-26T23:22:24.409Z,61.00
2018-07-26T23:24:53.984Z,61.40
2018-07-26T23:27:22.552Z,61.80
2018-07-26T23:29:51.084Z,62.40
2018-07-26T23:32:19.553Z,62.60
2018-07-26T23:34:48.613Z,62.20
2018-07-26T23:37:17.216Z,62.30
2018-07-26T23:39:45.692Z,62.10
2018-07-26T23:42:14.183Z,61.40
2018-07-26T23:44:43.427Z,62.00
2018-07-26T23:47:11.892Z,61.90
2018-07-26T23:49:40.368Z,62.80
2018-07-26T23:52:08.845Z,63.20
2018-07-26T23:54:37.353Z,63.90
2018-07-26T23:57:05.992Z,63.80
